<?xml version='1.0' encoding='UTF-8'?><gpx version="1.1" creator="JPX - https://github.com/jenetics/jpx" xmlns="http://www.topografix.com/GPX/1/1"><trk><trkseg><trkpt lat="40.679526337521395" lon="15.232989924356612"><ele>334.99999999999994</ele><time>2026-05-01T16:31:00.466Z</time></trkpt><trkpt lat="40.67956399845991" lon="15.23291872143884"><ele>335.0</ele><time>2026-05-01T16:31:03.319Z</time></trkpt><trkpt lat="40.67962011392559" lon="15.232865053338735"><ele>335.0</ele><time>2026-05-01T16:31:08.072Z</time></trkpt><trkpt lat="40.679675887921235" lon="15.232820487654593"><ele>335.0</ele><time>2026-05-01T16:31:14.995Z</time></trkpt><trkpt lat="40.67971003610238" lon="15.232749816470331"><ele>335.0</ele><time>2026-05-01T16:31:21.997Z</time></trkpt><trkpt lat="40.67976849821796" lon="15.23269645172058"><ele>334.99999999999994</ele><time>2026-05-01T16:31:30.998Z</time></trkpt><trkpt lat="40.67982641945771" lon="15.232650097985923"><ele>335.0</ele><time>2026-05-01T16:31:36.999Z</time></trkpt><trkpt lat="40.67985576867785" lon="15.232566604609623"><ele>334.99999999999994</ele><time>2026-05-01T16:31:43Z</time></trkpt><trkpt lat="40.67990886400315" lon="15.23251083139679"><ele>335.0</ele><time>2026-05-01T16:31:49Z</time></trkpt><trkpt lat="40.67993497947903" lon="15.232427633568077"><ele>335.0</ele><time>2026-05-01T16:31:56Z</time></trkpt><trkpt lat="40.679908273309884" lon="15.232320400255785"><ele>335.0</ele><time>2026-05-01T16:32:01Z</time></trkpt><trkpt lat="40.679878285120985" lon="15.232244179495055"><ele>335.0</ele><time>2026-05-01T16:32:10Z</time></trkpt><trkpt lat="40.679897759926625" lon="15.232146785792569"><ele>334.99999999999994</ele><time>2026-05-01T16:32:19Z</time></trkpt><trkpt lat="40.67991800554982" lon="15.232065209283874"><ele>335.0</ele><time>2026-05-01T16:32:27Z</time></trkpt><trkpt lat="40.67988912945537" lon="15.231980734276751"><ele>335.2857142857143</ele><time>2026-05-01T16:32:35Z</time></trkpt><trkpt lat="40.67984279897685" lon="15.231921978939607"><ele>335.57142857142856</ele><time>2026-05-01T16:32:41Z</time></trkpt><trkpt lat="40.67977915628107" lon="15.231876203317961"><ele>335.8571428571429</ele><time>2026-05-01T16:32:47Z</time></trkpt><trkpt lat="40.679713952238316" lon="15.231807667676728"><ele>336.1428571428571</ele><time>2026-05-01T16:32:53Z</time></trkpt><trkpt lat="40.67966988334142" lon="15.231745667626472"><ele>336.42857142857144</ele><time>2026-05-01T16:32:58Z</time></trkpt><trkpt lat="40.67961333067898" lon="15.231695397320195"><ele>336.7142857142857</ele><time>2026-05-01T16:33:03Z</time></trkpt><trkpt lat="40.67955350764526" lon="15.231644918918018"><ele>337.0</ele><time>2026-05-01T16:33:08Z</time></trkpt><trkpt lat="40.67948405333352" lon="15.231626934145044"><ele>334.5714285714286</ele><time>2026-05-01T16:33:15Z</time></trkpt><trkpt lat="40.67942001082389" lon="15.231636962299786"><ele>332.14285714285717</ele><time>2026-05-01T16:33:20Z</time></trkpt><trkpt lat="40.67934891624292" lon="15.231665988966654"><ele>329.7142857142857</ele><time>2026-05-01T16:33:26Z</time></trkpt><trkpt lat="40.67929148816316" lon="15.231709385889221"><ele>327.28571428571433</ele><time>2026-05-01T16:34:00Z</time></trkpt><trkpt lat="40.67922475827563" lon="15.231700761208696"><ele>324.8571428571429</ele><time>2026-05-01T16:34:06Z</time></trkpt><trkpt lat="40.67916005025418" lon="15.231738658640284"><ele>322.42857142857144</ele><time>2026-05-01T16:34:13Z</time></trkpt><trkpt lat="40.67910242702116" lon="15.231705000015443"><ele>320.0</ele><time>2026-05-01T16:34:20Z</time></trkpt><trkpt lat="40.6790752282148" lon="15.231618144911728"><ele>320.0</ele><time>2026-05-01T16:35:10Z</time></trkpt><trkpt lat="40.67909979872409" lon="15.231541159076116"><ele>320.0</ele><time>2026-05-01T16:35:14.999Z</time></trkpt><trkpt lat="40.679107522485104" lon="15.23145038713933"><ele>320.0</ele><time>2026-05-01T16:35:20Z</time></trkpt><trkpt lat="40.67914708101462" lon="15.231379407079253"><ele>320.0</ele><time>2026-05-01T16:35:24Z</time></trkpt><trkpt lat="40.679136621359646" lon="15.231289178291936"><ele>320.0</ele><time>2026-05-01T16:35:35Z</time></trkpt><trkpt lat="40.679168131907446" lon="15.231199928747168"><ele>320.0</ele><time>2026-05-01T16:35:44Z</time></trkpt><trkpt lat="40.67918170724551" lon="15.231112693361617"><ele>320.0</ele><time>2026-05-01T16:35:53Z</time></trkpt><trkpt lat="40.679120964538306" lon="15.231060010455082"><ele>321.42857142857144</ele><time>2026-05-01T16:36:01Z</time></trkpt><trkpt lat="40.67904391289671" lon="15.231028924607564"><ele>322.8571428571429</ele><time>2026-05-01T16:36:06Z</time></trkpt><trkpt lat="40.67898433080016" lon="15.230998959279598"><ele>324.28571428571433</ele><time>2026-05-01T16:36:09Z</time></trkpt><trkpt lat="40.678924446521485" lon="15.230957316860094"><ele>325.7142857142857</ele><time>2026-05-01T16:36:13Z</time></trkpt><trkpt lat="40.67886200993371" lon="15.230924882708722"><ele>327.14285714285717</ele><time>2026-05-01T16:36:19Z</time></trkpt><trkpt lat="40.67878806818799" lon="15.230910259727205"><ele>328.5714285714286</ele><time>2026-05-01T16:36:26Z</time></trkpt><trkpt lat="40.678725552450516" lon="15.230846864714623"><ele>330.0</ele><time>2026-05-01T16:36:31Z</time></trkpt><trkpt lat="40.678676756544995" lon="15.230780213509156"><ele>330.00000000000006</ele><time>2026-05-01T16:36:39Z</time></trkpt><trkpt lat="40.67867386928888" lon="15.230693194771032"><ele>330.0</ele><time>2026-05-01T16:36:46Z</time></trkpt><trkpt lat="40.67868704302233" lon="15.230611122067948"><ele>330.0</ele><time>2026-05-01T16:36:51Z</time></trkpt><trkpt lat="40.67865252127518" lon="15.230534567539008"><ele>330.0</ele><time>2026-05-01T16:36:59Z</time></trkpt><trkpt lat="40.67861812780809" lon="15.230448891249939"><ele>330.0</ele><time>2026-05-01T16:37:05Z</time></trkpt><trkpt lat="40.67857707860298" lon="15.2303839003422"><ele>330.00000000000006</ele><time>2026-05-01T16:37:10Z</time></trkpt><trkpt lat="40.67855754230349" lon="15.230302571851663"><ele>330.0</ele><time>2026-05-01T16:37:15Z</time></trkpt><trkpt lat="40.678569948070184" lon="15.230219206267764"><ele>331.42857142857144</ele><time>2026-05-01T16:37:25Z</time></trkpt><trkpt lat="40.67860640459433" lon="15.230141290795391"><ele>332.8571428571429</ele><time>2026-05-01T16:37:34Z</time></trkpt><trkpt lat="40.67862692220194" lon="15.230053180572208"><ele>334.28571428571433</ele><time>2026-05-01T16:37:40Z</time></trkpt><trkpt lat="40.67863072889755" lon="15.229968561600643"><ele>335.7142857142857</ele><time>2026-05-01T16:37:48Z</time></trkpt><trkpt lat="40.67862850833816" lon="15.229877613698278"><ele>337.1428571428571</ele><time>2026-05-01T16:37:55Z</time></trkpt><trkpt lat="40.678620287853576" lon="15.22979062918734"><ele>338.5714285714286</ele><time>2026-05-01T16:38:03Z</time></trkpt><trkpt lat="40.67864204713137" lon="15.2297120231245"><ele>340.0</ele><time>2026-05-01T16:38:12Z</time></trkpt><trkpt lat="40.67864672160333" lon="15.229629239215983"><ele>341.14285714285717</ele><time>2026-05-01T16:38:17Z</time></trkpt><trkpt lat="40.67861349936655" lon="15.229556940205729"><ele>342.2857142857143</ele><time>2026-05-01T16:38:25.001Z</time></trkpt><trkpt lat="40.67855825852778" lon="15.22949779251643"><ele>343.42857142857144</ele><time>2026-05-01T16:38:30.001Z</time></trkpt><trkpt lat="40.67848519916815" lon="15.229481491876493"><ele>344.57142857142856</ele><time>2026-05-01T16:38:37.001Z</time></trkpt><trkpt lat="40.67840319016188" lon="15.229513327618152"><ele>345.7142857142857</ele><time>2026-05-01T16:38:52.001Z</time></trkpt><trkpt lat="40.678330022932904" lon="15.229503428619498"><ele>346.85714285714283</ele><time>2026-05-01T16:39:01.001Z</time></trkpt><trkpt lat="40.67826936014746" lon="15.229472004773267"><ele>348.0</ele><time>2026-05-01T16:39:09.001Z</time></trkpt><trkpt lat="40.678234586369854" lon="15.229390900971751"><ele>348.7142857142857</ele><time>2026-05-01T16:39:20Z</time></trkpt><trkpt lat="40.678175521435136" lon="15.229360971518373"><ele>349.42857142857144</ele><time>2026-05-01T16:39:26Z</time></trkpt><trkpt lat="40.67810687965336" lon="15.229363697546763"><ele>350.1428571428571</ele><time>2026-05-01T16:39:32Z</time></trkpt><trkpt lat="40.678041427030315" lon="15.229382556680441"><ele>350.8571428571429</ele><time>2026-05-01T16:39:37Z</time></trkpt><trkpt lat="40.67797823220892" lon="15.229354413660868"><ele>351.5714285714286</ele><time>2026-05-01T16:39:43Z</time></trkpt><trkpt lat="40.67790867640591" lon="15.229347397938074"><ele>352.2857142857143</ele><time>2026-05-01T16:39:50Z</time></trkpt><trkpt lat="40.677830381986766" lon="15.229376774346445"><ele>353.0</ele><time>2026-05-01T16:40:02Z</time></trkpt><trkpt lat="40.677762439597956" lon="15.229374669876451"><ele>354.0</ele><time>2026-05-01T16:40:16.001Z</time></trkpt><trkpt lat="40.67769905351876" lon="15.229372530300072"><ele>355.0</ele><time>2026-05-01T16:40:22.001Z</time></trkpt><trkpt lat="40.67763614942032" lon="15.229401912360878"><ele>356.0</ele><time>2026-05-01T16:40:27.001Z</time></trkpt><trkpt lat="40.677562092426534" lon="15.229392502664833"><ele>357.0</ele><time>2026-05-01T16:40:33.001Z</time></trkpt><trkpt lat="40.67749739635085" lon="15.229371583509636"><ele>358.0</ele><time>2026-05-01T16:40:42.001Z</time></trkpt><trkpt lat="40.67756806388717" lon="15.229356877697358"><ele>359.0</ele><time>2026-05-01T16:40:51.001Z</time></trkpt><trkpt lat="40.67764281675644" lon="15.229345623417384"><ele>360.0</ele><time>2026-05-01T16:40:59.001Z</time></trkpt><trkpt lat="40.67770235798925" lon="15.229306732353228"><ele>360.0</ele><time>2026-05-01T16:41:14.001Z</time></trkpt><trkpt lat="40.67774079156796" lon="15.229239296945039"><ele>360.0</ele><time>2026-05-01T16:41:28Z</time></trkpt><trkpt lat="40.677768666119434" lon="15.229137884936808"><ele>360.0</ele><time>2026-05-01T16:41:38Z</time></trkpt><trkpt lat="40.67782973173039" lon="15.229057290378933"><ele>360.0</ele><time>2026-05-01T16:42:12Z</time></trkpt><trkpt lat="40.67780305210229" lon="15.22897547349392"><ele>360.0</ele><time>2026-05-01T16:42:22Z</time></trkpt><trkpt lat="40.67775921801014" lon="15.228912861840508"><ele>360.0</ele><time>2026-05-01T16:42:37Z</time></trkpt><trkpt lat="40.67768692257381" lon="15.228913617252607"><ele>360.0</ele><time>2026-05-01T16:43:03Z</time></trkpt><trkpt lat="40.677625701595424" lon="15.228933180398908"><ele>360.0</ele><time>2026-05-01T16:43:08Z</time></trkpt><trkpt lat="40.67756083628438" lon="15.228952306952007"><ele>360.0</ele><time>2026-05-01T16:43:19Z</time></trkpt><trkpt lat="40.67749769728672" lon="15.228978461093607"><ele>360.0</ele><time>2026-05-01T16:43:26.001Z</time></trkpt><trkpt lat="40.677433708358315" lon="15.22899402428889"><ele>360.0</ele><time>2026-05-01T16:43:31Z</time></trkpt><trkpt lat="40.6773727418676" lon="15.229038521500375"><ele>360.0</ele><time>2026-05-01T16:43:37Z</time></trkpt><trkpt lat="40.67730232789678" lon="15.229052395331566"><ele>360.0</ele><time>2026-05-01T16:43:43Z</time></trkpt><trkpt lat="40.67722818182351" lon="15.229045710415887"><ele>360.0</ele><time>2026-05-01T16:43:49Z</time></trkpt><trkpt lat="40.67715816455997" lon="15.229026191180589"><ele>360.0</ele><time>2026-05-01T16:43:55Z</time></trkpt><trkpt lat="40.677084478703534" lon="15.229022184570017"><ele>360.0</ele><time>2026-05-01T16:44:01Z</time></trkpt><trkpt lat="40.677024214169215" lon="15.229053339477995"><ele>360.0</ele><time>2026-05-01T16:44:07Z</time></trkpt><trkpt lat="40.67697833882858" lon="15.229115412218722"><ele>360.0</ele><time>2026-05-01T16:44:13Z</time></trkpt><trkpt lat="40.6769348349769" lon="15.229184354934873"><ele>360.0</ele><time>2026-05-01T16:44:19Z</time></trkpt><trkpt lat="40.6768717122163" lon="15.229206619556134"><ele>360.0</ele><time>2026-05-01T16:44:25Z</time></trkpt><trkpt lat="40.67679311602082" lon="15.229201509255208"><ele>360.0</ele><time>2026-05-01T16:44:31Z</time></trkpt><trkpt lat="40.67672660024543" lon="15.229174475771192"><ele>359.7142857142857</ele><time>2026-05-01T16:44:37Z</time></trkpt><trkpt lat="40.676659574445246" lon="15.229160129996822"><ele>359.42857142857144</ele><time>2026-05-01T16:44:45Z</time></trkpt><trkpt lat="40.67659848411119" lon="15.229127494520771"><ele>359.14285714285717</ele><time>2026-05-01T16:44:53Z</time></trkpt><trkpt lat="40.67653329079064" lon="15.229101048074233"><ele>358.8571428571429</ele><time>2026-05-01T16:45:03Z</time></trkpt><trkpt lat="40.676464978096156" lon="15.229090333709372"><ele>358.57142857142856</ele><time>2026-05-01T16:45:57Z</time></trkpt><trkpt lat="40.67640464574251" lon="15.229062086902477"><ele>358.28571428571433</ele><time>2026-05-01T16:46:02Z</time></trkpt><trkpt lat="40.676333483753886" lon="15.229036003559571"><ele>358.0</ele><time>2026-05-01T16:46:10Z</time></trkpt><trkpt lat="40.67626732937789" lon="15.22904859720142"><ele>358.00000000000006</ele><time>2026-05-01T16:46:30Z</time></trkpt><trkpt lat="40.67619880711425" lon="15.229071590836508"><ele>358.0</ele><time>2026-05-01T16:46:41Z</time></trkpt><trkpt lat="40.6761371070986" lon="15.22905299446254"><ele>358.0</ele><time>2026-05-01T16:46:52.001Z</time></trkpt><trkpt lat="40.67607793561018" lon="15.22899025402608"><ele>358.0</ele><time>2026-05-01T16:47:04.001Z</time></trkpt><trkpt lat="40.6760411089144" lon="15.228910926541898"><ele>358.0</ele><time>2026-05-01T16:47:11.001Z</time></trkpt><trkpt lat="40.67599628291533" lon="15.228839118249063"><ele>358.00000000000006</ele><time>2026-05-01T16:47:17.001Z</time></trkpt><trkpt lat="40.67593461734896" lon="15.228817565443062"><ele>358.0</ele><time>2026-05-01T16:47:21.001Z</time></trkpt><trkpt lat="40.675872970559844" lon="15.228851393557754"><ele>357.8571428571429</ele><time>2026-05-01T16:47:27.001Z</time></trkpt><trkpt lat="40.67585625161767" lon="15.228935296109384"><ele>357.7142857142857</ele><time>2026-05-01T16:47:38.001Z</time></trkpt><trkpt lat="40.67582588619996" lon="15.229015966858833"><ele>357.57142857142856</ele><time>2026-05-01T16:47:44.999Z</time></trkpt><trkpt lat="40.675755035043615" lon="15.229048258228097"><ele>357.42857142857144</ele><time>2026-05-01T16:47:53Z</time></trkpt><trkpt lat="40.67569513460263" lon="15.229075782975428"><ele>357.2857142857143</ele><time>2026-05-01T16:47:58Z</time></trkpt><trkpt lat="40.6756349198475" lon="15.229121761944128"><ele>357.14285714285717</ele><time>2026-05-01T16:48:06Z</time></trkpt><trkpt lat="40.675555514985874" lon="15.229139730070958"><ele>357.0</ele><time>2026-05-01T16:48:13Z</time></trkpt><trkpt lat="40.67546949493938" lon="15.229145950266807"><ele>357.0</ele><time>2026-05-01T16:48:28Z</time></trkpt><trkpt lat="40.67540773522368" lon="15.229128939096324"><ele>357.0</ele><time>2026-05-01T16:48:33Z</time></trkpt><trkpt lat="40.67533443058663" lon="15.229119944455688"><ele>357.0</ele><time>2026-05-01T16:48:39Z</time></trkpt><trkpt lat="40.675273280068694" lon="15.229159480636625"><ele>357.0</ele><time>2026-05-01T16:48:46Z</time></trkpt><trkpt lat="40.67520947902032" lon="15.229166886961698"><ele>357.0</ele><time>2026-05-01T16:48:53Z</time></trkpt><trkpt lat="40.67513286865873" lon="15.229179240325248"><ele>357.0</ele><time>2026-05-01T16:49:00.001Z</time></trkpt><trkpt lat="40.67505779689521" lon="15.229189125492544"><ele>357.0</ele><time>2026-05-01T16:49:07.001Z</time></trkpt><trkpt lat="40.67497760588013" lon="15.229199108126643"><ele>356.57142857142856</ele><time>2026-05-01T16:49:13.001Z</time></trkpt><trkpt lat="40.67492384457792" lon="15.229155794662194"><ele>356.1428571428571</ele><time>2026-05-01T16:49:20.001Z</time></trkpt><trkpt lat="40.674857086248224" lon="15.22913676779063"><ele>355.7142857142857</ele><time>2026-05-01T16:49:28.001Z</time></trkpt><trkpt lat="40.674791411343776" lon="15.229128146122983"><ele>355.2857142857143</ele><time>2026-05-01T16:49:33.001Z</time></trkpt><trkpt lat="40.67472201482282" lon="15.229104672225581"><ele>354.85714285714283</ele><time>2026-05-01T16:49:39.001Z</time></trkpt><trkpt lat="40.674659166300145" lon="15.22913490860692"><ele>354.42857142857144</ele><time>2026-05-01T16:49:46.001Z</time></trkpt><trkpt lat="40.674597483854" lon="15.229172459039352"><ele>354.0</ele><time>2026-05-01T16:49:52Z</time></trkpt><trkpt lat="40.67453227067092" lon="15.229185829873492"><ele>354.0</ele><time>2026-05-01T16:49:57Z</time></trkpt><trkpt lat="40.67446875549994" lon="15.229187577495841"><ele>354.0</ele><time>2026-05-01T16:50:01.999Z</time></trkpt><trkpt lat="40.67440703154504" lon="15.229164269572934"><ele>354.0</ele><time>2026-05-01T16:50:09Z</time></trkpt><trkpt lat="40.67433462645804" lon="15.229138012050564"><ele>354.0</ele><time>2026-05-01T16:50:15Z</time></trkpt><trkpt lat="40.6742627919615" lon="15.229145322859155"><ele>354.0</ele><time>2026-05-01T16:50:21Z</time></trkpt><trkpt lat="40.674207172646966" lon="15.22921459784365"><ele>354.0</ele><time>2026-05-01T16:50:28Z</time></trkpt><trkpt lat="40.67414129537524" lon="15.229200002694059"><ele>354.0</ele><time>2026-05-01T16:50:36Z</time></trkpt><trkpt lat="40.674097564854726" lon="15.229135816416024"><ele>352.5714285714286</ele><time>2026-05-01T16:50:42Z</time></trkpt><trkpt lat="40.67405684762562" lon="15.229071987915233"><ele>351.1428571428571</ele><time>2026-05-01T16:50:48Z</time></trkpt><trkpt lat="40.67399411178032" lon="15.22903438025654"><ele>349.7142857142857</ele><time>2026-05-01T16:50:55Z</time></trkpt><trkpt lat="40.673925984878124" lon="15.22905876829267"><ele>348.28571428571433</ele><time>2026-05-01T16:51:02Z</time></trkpt><trkpt lat="40.67386897912177" lon="15.229117676062657"><ele>346.8571428571429</ele><time>2026-05-01T16:51:09Z</time></trkpt><trkpt lat="40.67380510522035" lon="15.229156734455414"><ele>345.42857142857144</ele><time>2026-05-01T16:51:16.001Z</time></trkpt><trkpt lat="40.67375878220595" lon="15.229214585839044"><ele>344.0</ele><time>2026-05-01T16:51:23.001Z</time></trkpt><trkpt lat="40.673765799190974" lon="15.229303985179321"><ele>344.00000000000006</ele><time>2026-05-01T16:51:42.001Z</time></trkpt><trkpt lat="40.6737265837924" lon="15.229376852942442"><ele>344.0</ele><time>2026-05-01T16:51:53.001Z</time></trkpt><trkpt lat="40.673666397302966" lon="15.229427029893584"><ele>344.0</ele><time>2026-05-01T16:52:00Z</time></trkpt><trkpt lat="40.67359700813543" lon="15.229423191167212"><ele>344.0</ele><time>2026-05-01T16:52:05Z</time></trkpt><trkpt lat="40.67353031409471" lon="15.229429031810364"><ele>344.0</ele><time>2026-05-01T16:52:11Z</time></trkpt><trkpt lat="40.67346530089915" lon="15.229462914484781"><ele>344.00000000000006</ele><time>2026-05-01T16:52:21Z</time></trkpt><trkpt lat="40.673398793122885" lon="15.229501819497584"><ele>344.0</ele><time>2026-05-01T16:52:31Z</time></trkpt><trkpt lat="40.673338203039506" lon="15.22955918489097"><ele>343.00000000000006</ele><time>2026-05-01T16:52:40Z</time></trkpt><trkpt lat="40.673281583666444" lon="15.229617825182858"><ele>342.0</ele><time>2026-05-01T16:52:47Z</time></trkpt><trkpt lat="40.67322780105671" lon="15.229662768587263"><ele>341.0</ele><time>2026-05-01T16:52:53Z</time></trkpt><trkpt lat="40.673186234707025" lon="15.2297301360162"><ele>340.0</ele><time>2026-05-01T16:53:00Z</time></trkpt><trkpt lat="40.673138328953335" lon="15.22978700493541"><ele>339.0</ele><time>2026-05-01T16:53:06Z</time></trkpt><trkpt lat="40.673204010090274" lon="15.229886045202996"><ele>338.00000000000006</ele><time>2026-05-01T16:53:10Z</time></trkpt><trkpt lat="40.673143121557395" lon="15.229861770012487"><ele>337.0</ele><time>2026-05-01T16:53:14Z</time></trkpt><trkpt lat="40.67308514720607" lon="15.22991798418712"><ele>338.42857142857144</ele><time>2026-05-01T16:53:20Z</time></trkpt><trkpt lat="40.67302828045294" lon="15.229967030065094"><ele>339.8571428571429</ele><time>2026-05-01T16:53:31.001Z</time></trkpt><trkpt lat="40.67297036845163" lon="15.230036269273132"><ele>341.28571428571433</ele><time>2026-05-01T16:53:37.001Z</time></trkpt><trkpt lat="40.672906137443455" lon="15.23005586989172"><ele>342.7142857142857</ele><time>2026-05-01T16:53:43.001Z</time></trkpt><trkpt lat="40.67283442222483" lon="15.23006180240995"><ele>344.1428571428571</ele><time>2026-05-01T16:53:49.001Z</time></trkpt><trkpt lat="40.67276913628929" lon="15.2301020407387"><ele>345.5714285714286</ele><time>2026-05-01T16:53:55.001Z</time></trkpt><trkpt lat="40.672725566099054" lon="15.230176442863474"><ele>347.0</ele><time>2026-05-01T16:54:20Z</time></trkpt><trkpt lat="40.67267257758154" lon="15.230222559760115"><ele>347.0</ele><time>2026-05-01T16:54:29Z</time></trkpt><trkpt lat="40.67261961428945" lon="15.230269160948266"><ele>347.0</ele><time>2026-05-01T16:54:36Z</time></trkpt><trkpt lat="40.67255985294475" lon="15.230327439493966"><ele>347.0</ele><time>2026-05-01T16:54:45Z</time></trkpt><trkpt lat="40.67250144799763" lon="15.230373556344095"><ele>347.0</ele><time>2026-05-01T16:54:52Z</time></trkpt><trkpt lat="40.67243475407131" lon="15.2303926864847"><ele>347.0</ele><time>2026-05-01T16:55:01Z</time></trkpt><trkpt lat="40.67236770486492" lon="15.23037423077922"><ele>347.0</ele><time>2026-05-01T16:55:12.001Z</time></trkpt><trkpt lat="40.672301312618565" lon="15.23039926752757"><ele>347.0</ele><time>2026-05-01T16:55:22.001Z</time></trkpt><trkpt lat="40.67228584089763" lon="15.230492254494436"><ele>347.0</ele><time>2026-05-01T16:55:37.001Z</time></trkpt><trkpt lat="40.67225873061336" lon="15.230586298059835"><ele>347.0</ele><time>2026-05-01T16:56:58Z</time></trkpt><trkpt lat="40.67226209269254" lon="15.230680589551271"><ele>347.0</ele><time>2026-05-01T16:57:06.001Z</time></trkpt><trkpt lat="40.67225883427545" lon="15.230812385979764"><ele>347.0</ele><time>2026-05-01T16:57:18.001Z</time></trkpt><trkpt lat="40.67227578018552" lon="15.230907634098726"><ele>347.0</ele><time>2026-05-01T16:57:28.001Z</time></trkpt><trkpt lat="40.67231934775027" lon="15.230983423922378"><ele>347.0</ele><time>2026-05-01T16:57:36.001Z</time></trkpt><trkpt lat="40.672396170631956" lon="15.230996856462705"><ele>348.7142857142857</ele><time>2026-05-01T16:57:44.001Z</time></trkpt><trkpt lat="40.67246917457284" lon="15.230999822505657"><ele>350.4285714285714</ele><time>2026-05-01T16:57:51.001Z</time></trkpt><trkpt lat="40.672538926606535" lon="15.230975845799927"><ele>352.1428571428571</ele><time>2026-05-01T16:57:56.001Z</time></trkpt><trkpt lat="40.67259461544804" lon="15.230915453761456"><ele>353.8571428571429</ele><time>2026-05-01T16:58:00.001Z</time></trkpt><trkpt lat="40.67265782263711" lon="15.230857468890388"><ele>355.57142857142856</ele><time>2026-05-01T16:58:05.001Z</time></trkpt><trkpt lat="40.67269160586681" lon="15.230781538261262"><ele>357.2857142857143</ele><time>2026-05-01T16:58:10.001Z</time></trkpt><trkpt lat="40.67274308988829" lon="15.230720918560792"><ele>359.0</ele><time>2026-05-01T16:59:19Z</time></trkpt><trkpt lat="40.672791489071784" lon="15.230653492041764"><ele>358.14285714285717</ele><time>2026-05-01T16:59:24Z</time></trkpt><trkpt lat="40.67282738264918" lon="15.230571320326305"><ele>357.28571428571433</ele><time>2026-05-01T16:59:29Z</time></trkpt><trkpt lat="40.6728793168127" lon="15.2305077339524"><ele>356.42857142857144</ele><time>2026-05-01T16:59:37.001Z</time></trkpt><trkpt lat="40.67290346225221" lon="15.230426469976141"><ele>355.57142857142856</ele><time>2026-05-01T16:59:43.001Z</time></trkpt><trkpt lat="40.67294519467912" lon="15.23034645766963"><ele>354.7142857142857</ele><time>2026-05-01T16:59:50.001Z</time></trkpt><trkpt lat="40.6729884735393" lon="15.230278721042744"><ele>353.85714285714283</ele><time>2026-05-01T16:59:55.001Z</time></trkpt><trkpt lat="40.673034741789394" lon="15.230218315291815"><ele>353.0</ele><time>2026-05-01T17:00:05.001Z</time></trkpt><trkpt lat="40.67309618619402" lon="15.230192251051278"><ele>353.0</ele><time>2026-05-01T17:00:15.001Z</time></trkpt><trkpt lat="40.673153436395545" lon="15.230139737107892"><ele>353.0</ele><time>2026-05-01T17:00:25Z</time></trkpt><trkpt lat="40.6732173682712" lon="15.230134874021969"><ele>353.0</ele><time>2026-05-01T17:00:30Z</time></trkpt><trkpt lat="40.673283436745464" lon="15.230127490852691"><ele>353.0</ele><time>2026-05-01T17:00:38Z</time></trkpt><trkpt lat="40.67334405223359" lon="15.230079137097276"><ele>353.0</ele><time>2026-05-01T17:00:44Z</time></trkpt><trkpt lat="40.673395940746914" lon="15.230031559942653"><ele>353.0</ele><time>2026-05-01T17:00:58Z</time></trkpt><trkpt lat="40.67346150376133" lon="15.230060776405582"><ele>353.0</ele><time>2026-05-01T17:01:10Z</time></trkpt><trkpt lat="40.67354405512516" lon="15.230111130542328"><ele>353.4285714285714</ele><time>2026-05-01T17:01:25.001Z</time></trkpt><trkpt lat="40.673621473035354" lon="15.230082936010593"><ele>353.8571428571429</ele><time>2026-05-01T17:01:30.001Z</time></trkpt><trkpt lat="40.673668870246885" lon="15.230005756736324"><ele>354.2857142857143</ele><time>2026-05-01T17:01:37.001Z</time></trkpt><trkpt lat="40.67369309438598" lon="15.22992031387093"><ele>354.71428571428567</ele><time>2026-05-01T17:01:43.001Z</time></trkpt><trkpt lat="40.67373881399109" lon="15.229844386219959"><ele>355.1428571428571</ele><time>2026-05-01T17:01:49.001Z</time></trkpt><trkpt lat="40.67378828459811" lon="15.229783095279878"><ele>355.57142857142856</ele><time>2026-05-01T17:01:55.001Z</time></trkpt><trkpt lat="40.67385439850252" lon="15.22977939382992"><ele>356.0</ele><time>2026-05-01T17:02:09.001Z</time></trkpt><trkpt lat="40.673921561740705" lon="15.229809008281858"><ele>355.99999999999994</ele><time>2026-05-01T17:02:41Z</time></trkpt><trkpt lat="40.67392470139621" lon="15.229894715707587"><ele>356.0</ele><time>2026-05-01T17:02:48Z</time></trkpt><trkpt lat="40.67393368142688" lon="15.229988849666634"><ele>356.0</ele><time>2026-05-01T17:03:01Z</time></trkpt><trkpt lat="40.673963849360355" lon="15.230064087466486"><ele>356.0</ele><time>2026-05-01T17:03:09.001Z</time></trkpt><trkpt lat="40.67400331870971" lon="15.230130827770559"><ele>356.0</ele><time>2026-05-01T17:03:15.001Z</time></trkpt><trkpt lat="40.67406411238613" lon="15.2301754459811"><ele>355.99999999999994</ele><time>2026-05-01T17:03:24.001Z</time></trkpt><trkpt lat="40.6741298945771" lon="15.230184189856491"><ele>356.0</ele><time>2026-05-01T17:03:31.001Z</time></trkpt><trkpt lat="40.674190304262694" lon="15.230209266761346"><ele>355.99999999999994</ele><time>2026-05-01T17:03:42.001Z</time></trkpt><trkpt lat="40.67425377575629" lon="15.230239169022672"><ele>356.0</ele><time>2026-05-01T17:03:49.001Z</time></trkpt><trkpt lat="40.674317751932115" lon="15.230233263565136"><ele>356.0</ele><time>2026-05-01T17:03:57.001Z</time></trkpt><trkpt lat="40.67439290534861" lon="15.23020692811377"><ele>356.0</ele><time>2026-05-01T17:04:06.001Z</time></trkpt><trkpt lat="40.674456351833946" lon="15.230207514965718"><ele>356.0</ele><time>2026-05-01T17:04:14.001Z</time></trkpt><trkpt lat="40.67452381242506" lon="15.230137157799463"><ele>355.99999999999994</ele><time>2026-05-01T17:04:37Z</time></trkpt><trkpt lat="40.674586444587504" lon="15.23015352666995"><ele>356.0</ele><time>2026-05-01T17:04:43Z</time></trkpt><trkpt lat="40.67466921170326" lon="15.230149057847761"><ele>356.99999999999994</ele><time>2026-05-01T17:04:49Z</time></trkpt><trkpt lat="40.674742709151246" lon="15.230149859807353"><ele>358.0</ele><time>2026-05-01T17:04:53Z</time></trkpt><trkpt lat="40.674809545319306" lon="15.230112389904574"><ele>359.0</ele><time>2026-05-01T17:04:58Z</time></trkpt><trkpt lat="40.674868061291065" lon="15.23005006607512"><ele>360.0</ele><time>2026-05-01T17:05:03Z</time></trkpt><trkpt lat="40.674912724534614" lon="15.229978625159568"><ele>361.0</ele><time>2026-05-01T17:05:09Z</time></trkpt><trkpt lat="40.67497144947565" lon="15.229936985339723"><ele>361.99999999999994</ele><time>2026-05-01T17:05:15Z</time></trkpt><trkpt lat="40.67503727283326" lon="15.22991725490318"><ele>363.0</ele><time>2026-05-01T17:05:20Z</time></trkpt><trkpt lat="40.67509907589063" lon="15.229883554248184"><ele>362.99999999999994</ele><time>2026-05-01T17:05:27.001Z</time></trkpt><trkpt lat="40.67516716967377" lon="15.229866835736733"><ele>363.0</ele><time>2026-05-01T17:05:34.001Z</time></trkpt><trkpt lat="40.67523939369252" lon="15.22984433450241"><ele>363.0</ele><time>2026-05-01T17:05:40.001Z</time></trkpt><trkpt lat="40.67529634344534" lon="15.22980403648741"><ele>363.0</ele><time>2026-05-01T17:05:47.001Z</time></trkpt><trkpt lat="40.67534370441745" lon="15.22974890925716"><ele>363.0</ele><time>2026-05-01T17:05:53.001Z</time></trkpt><trkpt lat="40.67539131183856" lon="15.22969406212457"><ele>362.99999999999994</ele><time>2026-05-01T17:05:58.001Z</time></trkpt><trkpt lat="40.67543585733743" lon="15.229616936799491"><ele>363.0</ele><time>2026-05-01T17:06:07.001Z</time></trkpt><trkpt lat="40.67550032012462" lon="15.229568595453031"><ele>357.0</ele><time>2026-05-01T17:06:12.001Z</time></trkpt><trkpt lat="40.67556027639235" lon="15.229542617759053"><ele>357.0</ele><time>2026-05-01T17:06:20.001Z</time></trkpt><trkpt lat="40.675619304922236" lon="15.2295040038026"><ele>357.0</ele><time>2026-05-01T17:06:27.002Z</time></trkpt><trkpt lat="40.675679177313235" lon="15.229470680789696"><ele>357.0</ele><time>2026-05-01T17:06:32.002Z</time></trkpt><trkpt lat="40.675741051164394" lon="15.229427034369127"><ele>357.0</ele><time>2026-05-01T17:06:39Z</time></trkpt><trkpt lat="40.67579750366187" lon="15.229371455339294"><ele>357.0</ele><time>2026-05-01T17:06:50Z</time></trkpt></trkseg><trkseg><trkpt lat="40.67747938618619" lon="15.229476618510041"><ele>360.0</ele><time>2026-05-01T17:19:40.012Z</time></trkpt><trkpt lat="40.67743603768659" lon="15.229555202926344"><ele>360.0</ele><time>2026-05-01T17:19:46.012Z</time></trkpt><trkpt lat="40.67737492964686" lon="15.229575762711903"><ele>360.0</ele><time>2026-05-01T17:19:51.012Z</time></trkpt><trkpt lat="40.677306083838175" lon="15.229607295032647"><ele>360.0</ele><time>2026-05-01T17:21:33.014Z</time></trkpt><trkpt lat="40.67725027591415" lon="15.229667117796277"><ele>360.0</ele><time>2026-05-01T17:21:42.014Z</time></trkpt><trkpt lat="40.677200833679755" lon="15.229719323427227"><ele>360.0</ele><time>2026-05-01T17:21:49.014Z</time></trkpt><trkpt lat="40.6771487516646" lon="15.229793722184334"><ele>360.0</ele><time>2026-05-01T17:22:27.015Z</time></trkpt><trkpt lat="40.67708564646184" lon="15.22982467649444"><ele>357.0</ele><time>2026-05-01T17:22:35.015Z</time></trkpt><trkpt lat="40.67700878099715" lon="15.229869134045712"><ele>354.0</ele><time>2026-05-01T17:22:43.015Z</time></trkpt><trkpt lat="40.676940384188086" lon="15.229907336001078"><ele>351.0</ele><time>2026-05-01T17:22:49.015Z</time></trkpt><trkpt lat="40.67688795402737" lon="15.229962233653366"><ele>348.0</ele><time>2026-05-01T17:22:54.015Z</time></trkpt><trkpt lat="40.67692243833061" lon="15.230041880311925"><ele>345.0</ele><time>2026-05-01T17:23:04.015Z</time></trkpt><trkpt lat="40.67700206251017" lon="15.230079777892696"><ele>342.0</ele><time>2026-05-01T17:23:15.016Z</time></trkpt><trkpt lat="40.677068081374" lon="15.230095466539032"><ele>339.0</ele><time>2026-05-01T17:23:20.016Z</time></trkpt><trkpt lat="40.67713646869318" lon="15.230134056837116"><ele>337.7142857142857</ele><time>2026-05-01T17:23:28.016Z</time></trkpt><trkpt lat="40.67720066627926" lon="15.230140215270726"><ele>336.42857142857144</ele><time>2026-05-01T17:23:35.016Z</time></trkpt><trkpt lat="40.67726830359956" lon="15.230125230322725"><ele>335.14285714285717</ele><time>2026-05-01T17:23:41.016Z</time></trkpt><trkpt lat="40.6773346209687" lon="15.230131082818822"><ele>333.8571428571429</ele><time>2026-05-01T17:23:48.016Z</time></trkpt><trkpt lat="40.67740222422855" lon="15.230116389439088"><ele>332.57142857142856</ele><time>2026-05-01T17:23:53.016Z</time></trkpt><trkpt lat="40.677465657946115" lon="15.2301027474781"><ele>331.28571428571433</ele><time>2026-05-01T17:24:00.016Z</time></trkpt><trkpt lat="40.6775447701403" lon="15.230067581136565"><ele>330.0</ele><time>2026-05-01T17:24:05.016Z</time></trkpt><trkpt lat="40.67761667095119" lon="15.230062872088181"><ele>330.00000000000006</ele><time>2026-05-01T17:24:11.016Z</time></trkpt><trkpt lat="40.67769201178012" lon="15.230074497886"><ele>330.0</ele><time>2026-05-01T17:24:16.017Z</time></trkpt><trkpt lat="40.67775685739367" lon="15.23007983359172"><ele>330.0</ele><time>2026-05-01T17:24:20.017Z</time></trkpt><trkpt lat="40.67781699219141" lon="15.230118658060555"><ele>330.0</ele><time>2026-05-01T17:24:27.017Z</time></trkpt><trkpt lat="40.67788555315555" lon="15.230134240488141"><ele>330.0</ele><time>2026-05-01T17:24:38.017Z</time></trkpt><trkpt lat="40.67795069052171" lon="15.23014872806338"><ele>330.00000000000006</ele><time>2026-05-01T17:24:46.017Z</time></trkpt><trkpt lat="40.678012732459" lon="15.230199719660861"><ele>330.0</ele><time>2026-05-01T17:24:51.017Z</time></trkpt><trkpt lat="40.678044045445" lon="15.230275617392813"><ele>329.8571428571429</ele><time>2026-05-01T17:24:59.017Z</time></trkpt><trkpt lat="40.678075305240355" lon="15.230361645630813"><ele>329.7142857142857</ele><time>2026-05-01T17:25:06.017Z</time></trkpt><trkpt lat="40.67809746768325" lon="15.230443394381837"><ele>329.57142857142856</ele><time>2026-05-01T17:25:11.017Z</time></trkpt><trkpt lat="40.67812586743268" lon="15.230534646178855"><ele>329.42857142857144</ele><time>2026-05-01T17:25:27.018Z</time></trkpt><trkpt lat="40.67818677193493" lon="15.23057499612154"><ele>329.2857142857143</ele><time>2026-05-01T17:25:36.018Z</time></trkpt><trkpt lat="40.67820386785991" lon="15.230657171787467"><ele>329.14285714285717</ele><time>2026-05-01T17:25:45.018Z</time></trkpt><trkpt lat="40.678255315828984" lon="15.230721022372506"><ele>329.0</ele><time>2026-05-01T17:25:50.018Z</time></trkpt><trkpt lat="40.67830512288742" lon="15.230775560024735"><ele>326.7142857142857</ele><time>2026-05-01T17:25:57.018Z</time></trkpt><trkpt lat="40.67835921207014" lon="15.230839518408585"><ele>324.42857142857144</ele><time>2026-05-01T17:26:05.018Z</time></trkpt><trkpt lat="40.67842766309535" lon="15.23084805661352"><ele>322.1428571428571</ele><time>2026-05-01T17:26:11.018Z</time></trkpt><trkpt lat="40.6784948690662" lon="15.23087660118244"><ele>319.8571428571429</ele><time>2026-05-01T17:26:18.018Z</time></trkpt><trkpt lat="40.67851217330198" lon="15.230976288871062"><ele>317.57142857142856</ele><time>2026-05-01T17:26:25.019Z</time></trkpt><trkpt lat="40.67849269684187" lon="15.231057871159223"><ele>315.2857142857143</ele><time>2026-05-01T17:26:32.019Z</time></trkpt><trkpt lat="40.678440510631326" lon="15.231122645440474"><ele>313.0</ele><time>2026-05-01T17:26:41.019Z</time></trkpt><trkpt lat="40.67837774649941" lon="15.231154016558987"><ele>313.0</ele><time>2026-05-01T17:26:47.019Z</time></trkpt><trkpt lat="40.67832142019814" lon="15.231206542749657"><ele>313.0</ele><time>2026-05-01T17:26:52.018Z</time></trkpt><trkpt lat="40.67829199172664" lon="15.231293145320814"><ele>313.0</ele><time>2026-05-01T17:26:55.018Z</time></trkpt><trkpt lat="40.678302251176596" lon="15.231375175743274"><ele>313.0</ele><time>2026-05-01T17:27:00.018Z</time></trkpt><trkpt lat="40.678267456926264" lon="15.231499415119927"><ele>313.0</ele><time>2026-05-01T17:27:34.019Z</time></trkpt><trkpt lat="40.67824100992894" lon="15.231578175057102"><ele>313.0</ele><time>2026-05-01T17:27:39.019Z</time></trkpt><trkpt lat="40.67822984051788" lon="15.23166387261936"><ele>313.0</ele><time>2026-05-01T17:27:44.019Z</time></trkpt><trkpt lat="40.678216563980925" lon="15.231754519914421"><ele>311.7142857142857</ele><time>2026-05-01T17:27:52.019Z</time></trkpt><trkpt lat="40.67821107623878" lon="15.231837844090151"><ele>310.42857142857144</ele><time>2026-05-01T17:28:07.019Z</time></trkpt><trkpt lat="40.67821368156622" lon="15.23193067141622"><ele>309.1428571428571</ele><time>2026-05-01T17:28:13.019Z</time></trkpt><trkpt lat="40.67822156020933" lon="15.232035208230279"><ele>307.8571428571429</ele><time>2026-05-01T17:28:21.019Z</time></trkpt><trkpt lat="40.67823655928867" lon="15.232123624223727"><ele>306.5714285714286</ele><time>2026-05-01T17:28:28.019Z</time></trkpt><trkpt lat="40.678252052467386" lon="15.232207516886813"><ele>305.2857142857143</ele><time>2026-05-01T17:28:35.019Z</time></trkpt><trkpt lat="40.67830492770957" lon="15.232260867108957"><ele>304.0</ele><time>2026-05-01T17:28:44.02Z</time></trkpt><trkpt lat="40.67837001946842" lon="15.232284317813535"><ele>304.0</ele><time>2026-05-01T17:28:54.02Z</time></trkpt><trkpt lat="40.67843351362394" lon="15.232254613534492"><ele>304.0</ele><time>2026-05-01T17:29:02.02Z</time></trkpt><trkpt lat="40.67849467332224" lon="15.232211651698647"><ele>304.0</ele><time>2026-05-01T17:29:09.02Z</time></trkpt><trkpt lat="40.678563760231924" lon="15.232200757297612"><ele>304.0</ele><time>2026-05-01T17:29:18.02Z</time></trkpt><trkpt lat="40.678620336537016" lon="15.232152266615808"><ele>304.0</ele><time>2026-05-01T17:29:25.02Z</time></trkpt><trkpt lat="40.67868129536819" lon="15.2320991742922"><ele>304.0</ele><time>2026-05-01T17:29:33.02Z</time></trkpt><trkpt lat="40.67875441325116" lon="15.232076546179643"><ele>304.0</ele><time>2026-05-01T17:29:43.021Z</time></trkpt><trkpt lat="40.67881708122642" lon="15.232056069201494"><ele>306.2857142857143</ele><time>2026-05-01T17:29:54.021Z</time></trkpt><trkpt lat="40.67890808938818" lon="15.232046166755161"><ele>308.5714285714286</ele><time>2026-05-01T17:30:09.021Z</time></trkpt><trkpt lat="40.67896690141903" lon="15.23198205844616"><ele>310.8571428571429</ele><time>2026-05-01T17:30:18.021Z</time></trkpt><trkpt lat="40.67901838378491" lon="15.231918747414122"><ele>313.1428571428571</ele><time>2026-05-01T17:30:26.021Z</time></trkpt><trkpt lat="40.679059889601994" lon="15.231856266565645"><ele>315.42857142857144</ele><time>2026-05-01T17:30:33.021Z</time></trkpt><trkpt lat="40.679129630600485" lon="15.231852601487468"><ele>317.7142857142857</ele><time>2026-05-01T17:30:53.022Z</time></trkpt><trkpt lat="40.67915040388791" lon="15.231932143972578"><ele>320.0</ele><time>2026-05-01T17:31:02.022Z</time></trkpt><trkpt lat="40.679182313291435" lon="15.232009770878976"><ele>320.0</ele><time>2026-05-01T17:31:14.022Z</time></trkpt><trkpt lat="40.67924597718172" lon="15.232039264280303"><ele>320.0</ele><time>2026-05-01T17:31:54.021Z</time></trkpt><trkpt lat="40.679311368694194" lon="15.2320429515441"><ele>320.0</ele><time>2026-05-01T17:32:05.023Z</time></trkpt><trkpt lat="40.679377929845494" lon="15.232083946781353"><ele>320.0</ele><time>2026-05-01T17:32:20.023Z</time></trkpt><trkpt lat="40.679446216814846" lon="15.232093218529473"><ele>320.0</ele><time>2026-05-01T17:32:28.023Z</time></trkpt><trkpt lat="40.67951894502963" lon="15.232098715491489"><ele>320.0</ele><time>2026-05-01T17:32:35.023Z</time></trkpt><trkpt lat="40.67952242320652" lon="15.23218215538173"><ele>320.0</ele><time>2026-05-01T17:32:46.023Z</time></trkpt><trkpt lat="40.67948233504092" lon="15.232259651251272"><ele>320.0</ele><time>2026-05-01T17:32:53.023Z</time></trkpt><trkpt lat="40.67941544288671" lon="15.232303747535948"><ele>320.0</ele><time>2026-05-01T17:32:58.023Z</time></trkpt><trkpt lat="40.67936364400834" lon="15.232360547850805"><ele>320.0</ele><time>2026-05-01T17:33:02.024Z</time></trkpt><trkpt lat="40.67931933087097" lon="15.232429348301315"><ele>320.0</ele><time>2026-05-01T17:33:05.024Z</time></trkpt><trkpt lat="40.67926059814817" lon="15.232474023926091"><ele>320.0</ele><time>2026-05-01T17:33:07.024Z</time></trkpt><trkpt lat="40.67921039725566" lon="15.232524522823722"><ele>320.0</ele><time>2026-05-01T17:33:09.024Z</time></trkpt><trkpt lat="40.67915541125046" lon="15.232579379305259"><ele>320.0</ele><time>2026-05-01T17:33:11.024Z</time></trkpt><trkpt lat="40.67909239195559" lon="15.232638192660051"><ele>320.1666666666667</ele><time>2026-05-01T17:33:14.024Z</time></trkpt><trkpt lat="40.67899185873033" lon="15.232719250068712"><ele>320.33333333333337</ele><time>2026-05-01T17:33:57.023Z</time></trkpt><trkpt lat="40.678972734019496" lon="15.232828473450617"><ele>320.5</ele><time>2026-05-01T17:34:07.023Z</time></trkpt><trkpt lat="40.679017585067484" lon="15.232889048076439"><ele>320.6666666666667</ele><time>2026-05-01T17:34:10.023Z</time></trkpt><trkpt lat="40.679102954399205" lon="15.232855384065967"><ele>320.8333333333333</ele><time>2026-05-01T17:34:13.023Z</time></trkpt><trkpt lat="40.67915603085842" lon="15.232798951446783"><ele>321.0</ele><time>2026-05-01T17:34:26.023Z</time></trkpt><trkpt lat="40.679201795426174" lon="15.232738126743914"><ele>320.99999999999994</ele><time>2026-05-01T17:34:41.024Z</time></trkpt><trkpt lat="40.67925426095166" lon="15.232682419158893"><ele>321.0</ele><time>2026-05-01T17:34:50.024Z</time></trkpt><trkpt lat="40.679317088018436" lon="15.232643126505115"><ele>321.0</ele><time>2026-05-01T17:34:58.024Z</time></trkpt><trkpt lat="40.67937712920337" lon="15.232604396265433"><ele>321.0</ele><time>2026-05-01T17:35:06.024Z</time></trkpt><trkpt lat="40.67945593845487" lon="15.232549879590271"><ele>321.0</ele><time>2026-05-01T17:35:18.024Z</time></trkpt><trkpt lat="40.67949726635456" lon="15.232475250879876"><ele>320.99999999999994</ele><time>2026-05-01T17:35:35.024Z</time></trkpt><trkpt lat="40.67956977265945" lon="15.232436449549555"><ele>321.0</ele><time>2026-05-01T17:35:42.025Z</time></trkpt><trkpt lat="40.679621712924494" lon="15.232388902842375"><ele>322.99999999999994</ele><time>2026-05-01T17:35:50.025Z</time></trkpt><trkpt lat="40.679683380431754" lon="15.232357186336518"><ele>325.0</ele><time>2026-05-01T17:35:59.026Z</time></trkpt><trkpt lat="40.67975015257322" lon="15.232379843937453"><ele>327.0</ele><time>2026-05-01T17:36:06.026Z</time></trkpt><trkpt lat="40.679781097042124" lon="15.232464462141502"><ele>329.0</ele><time>2026-05-01T17:36:13.025Z</time></trkpt><trkpt lat="40.67974838811019" lon="15.232535520349845"><ele>331.0</ele><time>2026-05-01T17:36:19.025Z</time></trkpt><trkpt lat="40.67969501146899" lon="15.232596525810544"><ele>332.99999999999994</ele><time>2026-05-01T17:36:24.026Z</time></trkpt><trkpt lat="40.67964485535083" lon="15.23265359445795"><ele>335.0</ele><time>2026-05-01T17:36:28.026Z</time></trkpt><trkpt lat="40.679580731036836" lon="15.232679357700018"><ele>335.0</ele><time>2026-05-01T17:36:33.026Z</time></trkpt><trkpt lat="40.67951593536968" lon="15.23268691251545"><ele>335.0</ele><time>2026-05-01T17:36:38.026Z</time></trkpt><trkpt lat="40.67944308124363" lon="15.232683404681438"><ele>335.0</ele><time>2026-05-01T17:36:43.026Z</time></trkpt><trkpt lat="40.67939426109296" lon="15.232738883249116"><ele>321.0</ele><time>2026-05-01T17:36:49.026Z</time></trkpt><trkpt lat="40.67941926541328" lon="15.232833301493942"><ele>321.0</ele><time>2026-05-01T17:36:54.026Z</time></trkpt><trkpt lat="40.67938137233761" lon="15.232899820087876"><ele>321.0</ele><time>2026-05-01T17:36:58.026Z</time></trkpt><trkpt lat="40.67934834204874" lon="15.232973327001758"><ele>321.0</ele><time>2026-05-01T17:37:01.026Z</time></trkpt></trkseg></trk></gpx>